createdAt,value
2022-11-01T00:01:32.439Z,96891.22
2022-11-01T00:03:58.968Z,96893.00
2022-11-01T00:06:25.325Z,96884.16
2022-11-01T00:08:52.751Z,96898.25
2022-11-01T00:11:19.282Z,96892.53
2022-11-01T00:13:46.737Z,96896.31
2022-11-01T00:16:13.630Z,96902.22
2022-11-01T00:18:40.028Z,96896.00
2022-11-01T00:21:06.748Z,96901.88
2022-11-01T00:23:36.237Z,96894.34
2022-11-01T00:26:03.189Z,96898.59
2022-11-01T00:28:31.888Z,96900.75
2022-11-01T00:31:01.699Z,96900.59
2022-11-01T00:33:28.098Z,96893.34
2022-11-01T00:35:54.547Z,96885.19
2022-11-01T00:38:20.977Z,96891.72
2022-11-01T00:40:47.377Z,96880.91
2022-11-01T00:43:14.163Z,96887.31
2022-11-01T00:45:42.992Z,96885.66
2022-11-01T00:48:12.007Z,96877.31
2022-11-01T00:50:38.910Z,96877.97
2022-11-01T00:53:05.321Z,96873.06
2022-11-01T00:55:31.704Z,96884.03
2022-11-01T00:57:58.041Z,96886.81
2022-11-01T01:00:24.373Z,96880.25
2022-11-01T01:02:50.857Z,96881.22
2022-11-01T01:05:17.589Z,96897.28
2022-11-01T01:07:44.283Z,96884.84
2022-11-01T01:10:10.607Z,96883.69
2022-11-01T01:12:36.922Z,96883.53
2022-11-01T01:15:03.619Z,96881.88
2022-11-01T01:17:33.650Z,96881.06
2022-11-01T01:20:00.317Z,96878.78
2022-11-01T01:22:27.138Z,96875.66
2022-11-01T01:24:53.541Z,96876.47
2022-11-01T01:27:20.489Z,96873.69
2022-11-01T01:29:46.947Z,96866.97
2022-11-01T01:32:17.611Z,96870.09
2022-11-01T01:34:43.964Z,96872.53
2022-11-01T01:37:10.482Z,96871.41
2022-11-01T01:39:37.186Z,96872.69
2022-11-01T01:42:12.974Z,96873.69
2022-11-01T01:44:51.618Z,96883.47
2022-11-01T01:47:28.539Z,96884.97
2022-11-01T01:50:15.211Z,96883.50
2022-11-01T01:52:56.539Z,96894.16
2022-11-01T01:55:25.460Z,96889.06
2022-11-01T01:57:53.630Z,96892.81
2022-11-01T02:00:20.358Z,96888.25
2022-11-01T02:02:46.705Z,96900.53
2022-11-01T02:05:21.586Z,96902.81
2022-11-01T02:07:48.796Z,96900.31
2022-11-01T02:10:15.810Z,96898.84
2022-11-01T02:12:48.855Z,96897.56
2022-11-01T02:15:19.992Z,96889.53
2022-11-01T02:17:55.200Z,96891.03
2022-11-01T02:20:27.492Z,96882.84
2022-11-01T02:23:12.299Z,96879.19
2022-11-01T02:26:06.965Z,96882.81
2022-11-01T02:28:39.506Z,96882.00
2022-11-01T02:31:28.714Z,96881.19
2022-11-01T02:33:57.873Z,96889.03
2022-11-01T02:36:33.594Z,96882.16
2022-11-01T02:39:08.405Z,96888.00
2022-11-01T02:41:39.656Z,96885.72
2022-11-01T02:44:25.605Z,96880.84
2022-11-01T02:47:01.426Z,96886.41
2022-11-01T02:49:34.425Z,96891.78
2022-11-01T02:52:02.032Z,96894.06
2022-11-01T02:54:33.152Z,96894.25
2022-11-01T02:57:20.855Z,96901.28
2022-11-01T02:59:48.790Z,96896.91
2022-11-01T03:02:39.339Z,96899.69
2022-11-01T03:05:24.716Z,96905.41
2022-11-01T03:07:52.673Z,96906.41
2022-11-01T03:10:22.324Z,96908.06
2022-11-01T03:12:57.710Z,96903.78
2022-11-01T03:15:28.961Z,96903.59
2022-11-01T03:18:04.407Z,96895.41
2022-11-01T03:20:47.531Z,96894.09
2022-11-01T03:23:28.727Z,96899.00
2022-11-01T03:25:57.245Z,96901.13
2022-11-01T03:28:49.960Z,96909.00
2022-11-01T03:31:19.334Z,96901.81
2022-11-01T03:33:48.077Z,96913.09
2022-11-01T03:36:16.088Z,96909.19
2022-11-01T03:38:44.878Z,96921.00
2022-11-01T03:41:16.845Z,96918.00
2022-11-01T03:43:43.481Z,96913.56
2022-11-01T03:46:10.247Z,96909.13
2022-11-01T03:48:40.347Z,96919.34
2022-11-01T03:51:06.721Z,96910.47
2022-11-01T03:53:33.778Z,96911.13
2022-11-01T03:56:00.630Z,96919.81
2022-11-01T03:58:41.771Z,96919.75
2022-11-01T04:01:09.306Z,96924.34
2022-11-01T04:03:36.354Z,96930.38
2022-11-01T04:06:03.082Z,96922.03
2022-11-01T04:08:29.424Z,96925.84
2022-11-01T04:10:55.826Z,96927.13
2022-11-01T04:13:22.219Z,96929.72
2022-11-01T04:16:07.103Z,96938.94
2022-11-01T04:18:51.983Z,96935.84
2022-11-01T04:21:19.913Z,96941.75
2022-11-01T04:23:46.639Z,96938.63
2022-11-01T04:26:14.261Z,96936.28
2022-11-01T04:28:40.629Z,96937.00
2022-11-01T04:31:07.611Z,96931.28
2022-11-01T04:33:33.931Z,96931.94
2022-11-01T04:36:06.894Z,96939.41
2022-11-01T04:38:33.467Z,96945.59
2022-11-01T04:40:59.870Z,96935.13
2022-11-01T04:43:26.223Z,96941.84
2022-11-01T04:45:57.760Z,96928.75
2022-11-01T04:48:24.481Z,96934.97
2022-11-01T04:50:50.792Z,96938.44
2022-11-01T04:53:17.301Z,96944.47
2022-11-01T04:55:43.635Z,96941.00
2022-11-01T04:58:10.896Z,96944.16
2022-11-01T05:00:38.119Z,96938.34
2022-11-01T05:03:07.183Z,96936.94
2022-11-01T05:05:34.696Z,96945.25
2022-11-01T05:10:34.444Z,96957.31
2022-11-01T05:13:01.892Z,96949.84
2022-11-01T05:15:28.616Z,96947.78
2022-11-01T05:17:55.183Z,96952.47
2022-11-01T05:20:21.496Z,96962.97
2022-11-01T05:22:48.966Z,96962.13
2022-11-01T05:25:15.539Z,96971.00
2022-11-01T05:27:41.923Z,96965.75
2022-11-01T05:30:10.248Z,96964.78
2022-11-01T05:32:37.921Z,96969.16
2022-11-01T05:35:04.872Z,96978.16
2022-11-01T05:37:31.632Z,96981.56
2022-11-01T05:39:58.052Z,96986.81
2022-11-01T05:42:24.355Z,96988.63
2022-11-01T05:44:50.903Z,96980.63
2022-11-01T05:47:17.716Z,96990.75
2022-11-01T05:49:44.176Z,96996.97
2022-11-01T05:52:10.580Z,96990.13
2022-11-01T05:54:36.944Z,97007.25
2022-11-01T05:57:04.822Z,97011.66
2022-11-01T05:59:31.263Z,97015.09
2022-11-01T06:01:57.817Z,97006.47
2022-11-01T06:04:24.260Z,97007.66
2022-11-01T06:06:50.614Z,97012.06
2022-11-01T06:09:16.920Z,97018.59
2022-11-01T06:11:44.322Z,97007.13
2022-11-01T06:14:10.854Z,97006.31
2022-11-01T06:16:37.310Z,97016.66
2022-11-01T06:19:03.635Z,97031.72
2022-11-01T06:21:30.493Z,97027.91
2022-11-01T06:23:56.979Z,97023.16
2022-11-01T06:26:23.455Z,97022.94
2022-11-01T06:28:49.990Z,97040.97
2022-11-01T06:31:16.319Z,97040.91
2022-11-01T06:33:42.689Z,97032.28
2022-11-01T06:36:09.238Z,97045.72
2022-11-01T06:38:35.691Z,97049.56
2022-11-01T06:41:03.303Z,97054.16
2022-11-01T06:43:29.712Z,97052.56
2022-11-01T06:45:58.621Z,97066.31
2022-11-01T06:48:31.138Z,97064.69
2022-11-01T06:50:57.667Z,97068.47
2022-11-01T06:53:24.663Z,97080.16
2022-11-01T06:55:52.296Z,97076.34
2022-11-01T06:58:18.876Z,97081.28
2022-11-01T07:00:45.221Z,97087.03
2022-11-01T07:03:12.470Z,97089.84
2022-11-01T07:05:39.296Z,97099.94
2022-11-01T07:08:10.333Z,97111.44
2022-11-01T07:10:39.132Z,97113.97
2022-11-01T07:13:06.468Z,97105.44
2022-11-01T07:15:33.253Z,97114.47
2022-11-01T07:18:01.225Z,97122.19
2022-11-01T07:20:29.013Z,97120.25
2022-11-01T07:22:59.973Z,97130.09
2022-11-01T07:25:27.290Z,97131.09
2022-11-01T07:27:53.986Z,97127.34
2022-11-01T07:30:20.690Z,97118.34
2022-11-01T07:32:47.150Z,97117.69
2022-11-01T07:35:13.725Z,97109.50
2022-11-01T07:37:41.181Z,97105.25
2022-11-01T07:40:07.764Z,97107.88
2022-11-01T07:42:40.343Z,97112.50
2022-11-01T07:45:12.737Z,97111.97
2022-11-01T07:47:39.806Z,97107.38
2022-11-01T07:50:07.090Z,97107.34
2022-11-01T07:52:33.848Z,97112.75
2022-11-01T07:55:00.288Z,97112.91
2022-11-01T07:57:26.800Z,97125.88
2022-11-01T07:59:53.195Z,97129.84
2022-11-01T08:02:19.670Z,97133.00
2022-11-01T08:04:47.078Z,97142.66
2022-11-01T08:07:13.409Z,97144.16
2022-11-01T08:09:42.258Z,97144.31
2022-11-01T08:12:08.738Z,97150.88
2022-11-01T08:14:35.073Z,97147.59
2022-11-01T08:17:01.863Z,97157.28
2022-11-01T08:19:28.339Z,97160.72
2022-11-01T08:21:57.159Z,97149.72
2022-11-01T08:24:23.507Z,97148.25
2022-11-01T08:26:49.835Z,97151.38
2022-11-01T08:29:16.179Z,97153.84
2022-11-01T08:31:43.048Z,97152.19
2022-11-01T08:34:13.203Z,97147.91
2022-11-01T08:36:43.081Z,97147.22
2022-11-01T08:41:41.061Z,97138.09
2022-11-01T08:44:07.738Z,97154.63
2022-11-01T08:46:34.162Z,97146.22
2022-11-01T08:49:00.588Z,97159.81
2022-11-01T08:51:27.781Z,97167.28
2022-11-01T08:53:54.838Z,97162.66
2022-11-01T08:56:21.805Z,97169.78
2022-11-01T08:58:51.958Z,97176.94
2022-11-01T09:01:18.413Z,97174.84
2022-11-01T09:03:44.932Z,97181.75
2022-11-01T09:06:11.409Z,97175.03
2022-11-01T09:08:37.835Z,97173.78
2022-11-01T09:11:06.281Z,97168.50
2022-11-01T09:13:33.358Z,97167.53
2022-11-01T09:16:02.414Z,97174.84
2022-11-01T09:18:29.214Z,97170.16
2022-11-01T09:20:56.223Z,97175.84
2022-11-01T09:23:22.857Z,97172.13
2022-11-01T09:25:49.393Z,97171.38
2022-11-01T09:28:15.821Z,97173.25
2022-11-01T09:30:49.871Z,97182.56
2022-11-01T09:33:22.493Z,97182.66
2022-11-01T09:35:59.179Z,97180.19
2022-11-01T09:38:27.319Z,97179.31
2022-11-01T09:41:13.894Z,97193.16
2022-11-01T09:43:42.991Z,97199.91
2022-11-01T09:46:13.853Z,97195.19
2022-11-01T09:48:41.659Z,97190.06
2022-11-01T09:51:12.259Z,97187.66
2022-11-01T09:53:42.067Z,97193.31
2022-11-01T09:56:16.792Z,97191.13
2022-11-01T09:58:52.029Z,97191.28
2022-11-01T10:01:24.285Z,97185.06
2022-11-01T10:03:59.831Z,97197.03
2022-11-01T10:06:31.701Z,97186.16
2022-11-01T10:09:02.270Z,97190.31
2022-11-01T10:11:35.849Z,97185.72
2022-11-01T10:14:05.304Z,97186.81
2022-11-01T10:16:43.721Z,97186.94
2022-11-01T10:19:11.454Z,97179.63
2022-11-01T10:21:42.970Z,97170.66
2022-11-01T10:24:16.587Z,97181.22
2022-11-01T10:26:45.328Z,97171.63
2022-11-01T10:29:20.523Z,97167.19
2022-11-01T10:31:49.376Z,97162.19
2022-11-01T10:34:22.968Z,97165.28
2022-11-01T10:36:50.612Z,97167.28
2022-11-01T10:42:12.886Z,97184.91
2022-11-01T10:44:59.541Z,97183.97
2022-11-01T10:47:28.139Z,97197.44
2022-11-01T10:50:06.929Z,97182.16
2022-11-01T10:52:57.321Z,97197.47
2022-11-01T10:55:27.855Z,97195.75
2022-11-01T10:58:03.012Z,97194.69
2022-11-01T11:00:30.975Z,97198.13
2022-11-01T11:02:58.734Z,97196.31
2022-11-01T11:05:26.209Z,97198.28
2022-11-01T11:07:52.550Z,97194.88
2022-11-01T11:10:23.968Z,97187.88
2022-11-01T11:12:52.649Z,97183.97
2022-11-01T11:15:25.662Z,97186.97
2022-11-01T11:17:56.026Z,97187.44
2022-11-01T11:20:26.387Z,97184.25
2022-11-01T11:22:53.880Z,97180.41
2022-11-01T11:25:22.651Z,97171.59
2022-11-01T11:27:56.615Z,97167.31
2022-11-01T11:30:28.480Z,97161.25
2022-11-01T11:32:55.843Z,97168.19
2022-11-01T11:35:24.436Z,97168.44
2022-11-01T11:37:57.427Z,97171.84
2022-11-01T11:40:25.783Z,97167.34
2022-11-01T11:42:53.309Z,97158.81
2022-11-01T11:45:24.924Z,97163.91
2022-11-01T11:47:51.639Z,97169.22
2022-11-01T11:50:20.762Z,97170.44
2022-11-01T11:53:16.920Z,97169.22
2022-11-01T11:55:45.798Z,97164.34
2022-11-01T11:58:35.544Z,97160.47
2022-11-01T12:01:06.820Z,97166.38
2022-11-01T12:03:44.632Z,97160.47
2022-11-01T12:06:17.139Z,97153.53
2022-11-01T12:08:45.305Z,97163.13
2022-11-01T12:11:12.318Z,97153.13
2022-11-01T12:13:41.251Z,97160.88
2022-11-01T12:16:07.764Z,97159.88
2022-11-01T12:18:34.195Z,97162.13
2022-11-01T12:21:00.740Z,97153.13
2022-11-01T12:23:30.818Z,97164.34
2022-11-01T12:25:59.524Z,97157.81
2022-11-01T12:28:26.101Z,97158.25
2022-11-01T12:30:56.353Z,97159.03
2022-11-01T12:33:29.772Z,97158.22
2022-11-01T12:35:57.290Z,97156.22
2022-11-01T12:38:37.028Z,97150.66
2022-11-01T12:41:12.782Z,97149.41
2022-11-01T12:43:58.915Z,97151.88
2022-11-01T12:46:31.002Z,97156.53
2022-11-01T12:49:01.044Z,97155.88
2022-11-01T12:51:30.327Z,97153.22
2022-11-01T12:54:00.438Z,97156.69
2022-11-01T12:56:27.204Z,97161.19
2022-11-01T12:58:55.713Z,97163.44
2022-11-01T13:01:22.288Z,97167.16
2022-11-01T13:04:07.310Z,97164.28
2022-11-01T13:06:52.619Z,97169.38
2022-11-01T13:09:22.138Z,97163.81
2022-11-01T13:11:57.864Z,97153.94
2022-11-01T13:14:33.896Z,97148.59
2022-11-01T13:17:23.374Z,97155.69
2022-11-01T13:19:56.669Z,97167.31
2022-11-01T13:22:28.598Z,97166.72
2022-11-01T13:25:00.566Z,97166.06
2022-11-01T13:27:33.518Z,97166.47
2022-11-01T13:30:02.955Z,97166.28
2022-11-01T13:32:45.434Z,97162.81
2022-11-01T13:35:12.590Z,97160.91
2022-11-01T13:37:49.063Z,97165.28
2022-11-01T13:40:27.998Z,97166.31
2022-11-01T13:42:57.758Z,97163.25
2022-11-01T13:45:42.573Z,97166.13
2022-11-01T13:48:35.679Z,97158.16
2022-11-01T13:51:02.443Z,97173.78
2022-11-01T13:53:35.326Z,97177.91
2022-11-01T13:56:08.506Z,97175.28
2022-11-01T13:58:35.252Z,97180.94
2022-11-01T14:01:25.109Z,97176.25
2022-11-01T14:04:06.233Z,97172.38
2022-11-01T14:06:36.806Z,97176.69
2022-11-01T14:09:19.243Z,97178.94
2022-11-01T14:11:49.507Z,97174.38
2022-11-01T14:14:31.030Z,97184.19
2022-11-01T14:17:15.930Z,97178.91
2022-11-01T14:19:43.768Z,97179.19
2022-11-01T14:22:22.196Z,97187.72
2022-11-01T14:24:58.605Z,97184.28
2022-11-01T14:27:25.154Z,97187.34
2022-11-01T14:29:52.328Z,97182.06
2022-11-01T14:32:19.689Z,97178.59
2022-11-01T14:34:55.355Z,97185.75
2022-11-01T14:37:23.637Z,97181.47
2022-11-01T14:40:22.393Z,97178.00
2022-11-01T14:42:50.491Z,97183.34
2022-11-01T14:45:28.457Z,97181.50
2022-11-01T14:47:58.146Z,97183.13
2022-11-01T14:50:24.490Z,97178.03
2022-11-01T14:52:55.280Z,97180.25
2022-11-01T14:55:32.306Z,97188.44
2022-11-01T14:58:09.221Z,97188.03
2022-11-01T15:00:35.769Z,97184.53
2022-11-01T15:03:02.546Z,97194.94
2022-11-01T15:05:29.182Z,97198.22
2022-11-01T15:07:56.601Z,97197.19
2022-11-01T15:10:23.380Z,97201.09
2022-11-01T15:12:54.000Z,97195.97
2022-11-01T15:15:22.494Z,97205.16
2022-11-01T15:17:56.889Z,97200.69
2022-11-01T15:20:25.208Z,97198.41
2022-11-01T15:22:54.293Z,97198.81
2022-11-01T15:25:22.600Z,97199.22
2022-11-01T15:27:49.735Z,97205.56
2022-11-01T15:30:19.758Z,97220.63
2022-11-01T15:32:46.107Z,97215.31
2022-11-01T15:35:23.594Z,97219.41
2022-11-01T15:37:53.310Z,97216.88
2022-11-01T15:40:33.014Z,97212.38
2022-11-01T15:43:00.871Z,97221.81
2022-11-01T15:45:28.010Z,97220.16
2022-11-01T15:47:54.760Z,97220.56
2022-11-01T15:50:21.146Z,97221.78
2022-11-01T15:52:47.580Z,97222.16
2022-11-01T15:55:28.965Z,97224.41
2022-11-01T15:58:05.257Z,97226.44
2022-11-01T16:00:41.918Z,97230.31
2022-11-01T16:03:17.160Z,97227.47
2022-11-01T16:05:48.336Z,97232.94
2022-11-01T16:08:22.777Z,97239.66
2022-11-01T16:10:49.729Z,97236.00
2022-11-01T16:13:17.623Z,97239.25
2022-11-01T16:15:58.642Z,97239.44
2022-11-01T16:18:27.873Z,97242.84
2022-11-01T16:21:00.895Z,97247.38
2022-11-01T16:23:32.387Z,97250.19
2022-11-01T16:26:06.594Z,97249.72
2022-11-01T16:28:40.598Z,97254.97
2022-11-01T16:31:22.669Z,97256.16
2022-11-01T16:33:49.689Z,97259.78
2022-11-01T16:36:19.411Z,97263.53
2022-11-01T16:38:46.849Z,97272.69
2022-11-01T16:41:16.555Z,97264.88
2022-11-01T16:43:43.373Z,97275.34
2022-11-01T16:46:09.742Z,97277.75
2022-11-01T16:48:50.568Z,97281.13
2022-11-01T16:51:17.420Z,97288.22
2022-11-01T16:53:43.819Z,97292.19
2022-11-01T16:56:36.555Z,97297.91
2022-11-01T16:59:28.397Z,97303.13
2022-11-01T17:01:55.990Z,97311.28
2022-11-01T17:04:22.798Z,97312.50
2022-11-01T17:06:49.608Z,97314.72
2022-11-01T17:09:17.312Z,97319.06
2022-11-01T17:11:50.935Z,97325.41
2022-11-01T17:14:19.563Z,97317.78
2022-11-01T17:16:47.582Z,97320.19
2022-11-01T17:19:18.496Z,97323.78
2022-11-01T17:21:46.037Z,97324.69
2022-11-01T17:24:13.399Z,97328.50
2022-11-01T17:26:40.815Z,97327.44
2022-11-01T17:29:08.631Z,97330.44
2022-11-01T17:31:37.227Z,97332.56
2022-11-01T17:34:05.784Z,97332.19
2022-11-01T17:36:32.463Z,97337.75
2022-11-01T17:38:59.971Z,97341.66
2022-11-01T17:41:26.391Z,97342.59
2022-11-01T17:43:53.900Z,97343.06
2022-11-01T17:46:24.073Z,97343.97
2022-11-01T17:48:50.561Z,97339.97
2022-11-01T17:51:17.976Z,97339.44
2022-11-01T17:53:45.428Z,97342.16
2022-11-01T17:56:11.730Z,97339.16
2022-11-01T17:58:38.100Z,97341.53
2022-11-01T18:01:04.608Z,97346.25
2022-11-01T18:03:31.821Z,97337.97
2022-11-01T18:05:59.331Z,97341.69
2022-11-01T18:08:27.332Z,97344.06
2022-11-01T18:11:12.232Z,97349.88
2022-11-01T18:14:03.546Z,97346.31
2022-11-01T18:16:45.602Z,97340.94
2022-11-01T18:19:14.945Z,97345.09
2022-11-01T18:21:50.628Z,97347.38
2022-11-01T18:24:22.377Z,97352.09
2022-11-01T18:26:49.236Z,97351.38
2022-11-01T18:29:21.244Z,97351.13
2022-11-01T18:32:02.973Z,97348.13
2022-11-01T18:34:40.253Z,97349.84
2022-11-01T18:37:15.391Z,97351.63
2022-11-01T18:39:56.685Z,97344.81
2022-11-01T18:42:24.471Z,97353.25
2022-11-01T18:44:51.448Z,97350.75
2022-11-01T18:47:23.301Z,97351.13
2022-11-01T18:49:50.113Z,97361.38
2022-11-01T18:52:19.093Z,97368.69
2022-11-01T18:54:56.748Z,97366.56
2022-11-01T18:57:24.702Z,97371.22
2022-11-01T18:59:52.914Z,97367.72
2022-11-01T19:02:21.375Z,97375.56
2022-11-01T19:04:49.780Z,97376.22
2022-11-01T19:07:21.554Z,97361.38
2022-11-01T19:09:47.865Z,97367.50
2022-11-01T19:12:16.153Z,97376.72
2022-11-01T19:14:43.294Z,97380.13
2022-11-01T19:17:29.502Z,97381.75
2022-11-01T19:19:59.751Z,97372.50
2022-11-01T19:22:31.266Z,97386.19
2022-11-01T19:24:59.828Z,97371.59
2022-11-01T19:27:27.388Z,97383.13
2022-11-01T19:29:57.970Z,97375.56
2022-11-01T19:32:24.784Z,97362.06
2022-11-01T19:34:52.454Z,97364.56
2022-11-01T19:37:22.173Z,97376.19
2022-11-01T19:39:48.578Z,97370.63
2022-11-01T19:42:35.209Z,97378.38
2022-11-01T19:45:25.866Z,97380.69
2022-11-01T19:47:52.578Z,97371.97
2022-11-01T19:50:23.527Z,97375.22
2022-11-01T19:52:51.779Z,97374.91
2022-11-01T19:55:37.474Z,97373.97
2022-11-01T19:58:24.875Z,97372.31
2022-11-01T20:01:10.597Z,97375.44
2022-11-01T20:03:42.906Z,97373.94
2022-11-01T20:06:16.539Z,97376.59
2022-11-01T20:08:45.220Z,97372.00
2022-11-01T20:11:12.458Z,97377.72
2022-11-01T20:13:38.873Z,97379.06
2022-11-01T20:16:05.358Z,97378.38
2022-11-01T20:18:31.674Z,97384.78
2022-11-01T20:20:58.658Z,97391.22
2022-11-01T20:23:26.723Z,97394.50
2022-11-01T20:25:53.767Z,97390.69
2022-11-01T20:28:20.111Z,97394.75
2022-11-01T20:30:46.531Z,97386.69
2022-11-01T20:33:13.948Z,97389.53
2022-11-01T20:35:40.339Z,97386.84
2022-11-01T20:38:10.227Z,97395.75
2022-11-01T20:40:36.599Z,97403.63
2022-11-01T20:43:03.274Z,97408.56
2022-11-01T20:45:29.896Z,97401.00
2022-11-01T20:47:57.216Z,97401.84
2022-11-01T20:50:23.545Z,97400.47
2022-11-01T20:52:49.878Z,97406.22
2022-11-01T20:55:17.135Z,97409.22
2022-11-01T20:57:43.766Z,97404.13
2022-11-01T21:00:13.191Z,97402.31
2022-11-01T21:02:40.120Z,97406.78
2022-11-01T21:05:23.114Z,97411.50
2022-11-01T21:07:52.712Z,97419.41
2022-11-01T21:10:37.964Z,97415.53
2022-11-01T21:13:18.995Z,97424.44
2022-11-01T21:15:48.010Z,97422.97
2022-11-01T21:18:14.403Z,97414.66
2022-11-01T21:20:45.195Z,97409.72
2022-11-01T21:23:20.895Z,97414.84
2022-11-01T21:25:50.816Z,97417.78
2022-11-01T21:28:31.166Z,97418.75
2022-11-01T21:31:01.952Z,97424.63
2022-11-01T21:33:36.482Z,97427.09
2022-11-01T21:36:03.840Z,97428.06
2022-11-01T21:38:41.021Z,97427.56
2022-11-01T21:41:23.147Z,97425.59
2022-11-01T21:43:49.583Z,97425.78
2022-11-01T21:46:20.778Z,97426.03
2022-11-01T21:48:49.251Z,97432.81
2022-11-01T21:51:15.570Z,97422.13
2022-11-01T21:53:41.961Z,97418.22
2022-11-01T21:56:08.763Z,97415.91
2022-11-01T21:58:35.173Z,97418.53
2022-11-01T22:01:01.599Z,97418.53
2022-11-01T22:03:27.957Z,97413.06
2022-11-01T22:05:54.300Z,97416.56
2022-11-01T22:08:20.615Z,97414.28
2022-11-01T22:10:46.956Z,97411.94
2022-11-01T22:13:13.785Z,97411.28
2022-11-01T22:15:40.289Z,97408.81
2022-11-01T22:18:06.651Z,97409.94
2022-11-01T22:20:33.060Z,97410.22
2022-11-01T22:22:59.447Z,97422.78
2022-11-01T22:25:25.767Z,97417.50
2022-11-01T22:27:52.091Z,97426.59
2022-11-01T22:30:18.517Z,97419.47
2022-11-01T22:32:44.858Z,97422.44
2022-11-01T22:35:11.246Z,97411.31
2022-11-01T22:37:37.599Z,97409.59
2022-11-01T22:40:11.303Z,97416.44
2022-11-01T22:42:37.627Z,97419.13
2022-11-01T22:45:09.513Z,97415.16
2022-11-01T22:47:36.002Z,97417.63
2022-11-01T22:50:02.956Z,97419.47
2022-11-01T22:52:38.807Z,97417.81
2022-11-01T22:55:11.318Z,97414.50
2022-11-01T22:57:51.058Z,97413.88
2022-11-01T23:00:28.616Z,97414.63
2022-11-01T23:02:58.590Z,97420.91
2022-11-01T23:05:25.612Z,97417.75
2022-11-01T23:07:56.369Z,97409.47
2022-11-01T23:10:22.696Z,97410.13
2022-11-01T23:13:09.414Z,97404.53
2022-11-01T23:15:36.538Z,97408.78
2022-11-01T23:18:15.596Z,97418.25
2022-11-01T23:20:42.858Z,97418.03
2022-11-01T23:23:17.987Z,97423.28
2022-11-01T23:25:44.302Z,97421.25
2022-11-01T23:28:11.415Z,97429.00
2022-11-01T23:30:37.825Z,97422.28
2022-11-01T23:33:05.585Z,97421.75
2022-11-01T23:35:32.147Z,97425.25
2022-11-01T23:37:58.650Z,97424.59
2022-11-01T23:40:31.122Z,97423.75
2022-11-01T23:42:57.553Z,97420.22
2022-11-01T23:45:30.811Z,97425.13
2022-11-01T23:47:57.131Z,97428.09
2022-11-01T23:50:29.260Z,97420.25
2022-11-01T23:52:57.068Z,97425.50
2022-11-01T23:55:29.321Z,97430.59
2022-11-01T23:58:16.127Z,97422.72
